sensor_id;sensor_type;location;lat;lon;timestamp;P1;durP1;ratioP1;P2;durP2;ratioP2
23658;SDS011;12006;42.666;23.326;2023-04-01T00:00:21;8.63;;;5.57;;
23658;SDS011;12006;42.666;23.326;2023-04-01T00:02:46;7.73;;;5.97;;
23658;SDS011;12006;42.666;23.326;2023-04-01T00:05:12;11.20;;;6.70;;
23658;SDS011;12006;42.666;23.326;2023-04-01T00:07:38;12.37;;;6.67;;
23658;SDS011;12006;42.666;23.326;2023-04-01T00:10:08;7.70;;;6.43;;
23658;SDS011;12006;42.666;23.326;2023-04-01T00:12:35;12.20;;;6.87;;
23658;SDS011;12006;42.666;23.326;2023-04-01T00:15:02;10.10;;;6.73;;
23658;SDS011;12006;42.666;23.326;2023-04-01T00:17:29;11.17;;;7.10;;
23658;SDS011;12006;42.666;23.326;2023-04-01T00:19:55;13.90;;;7.87;;
23658;SDS011;12006;42.666;23.326;2023-04-01T00:22:21;15.10;;;9.83;;
23658;SDS011;12006;42.666;23.326;2023-04-01T00:24:47;15.83;;;10.73;;
23658;SDS011;12006;42.666;23.326;2023-04-01T00:27:12;16.50;;;11.60;;
23658;SDS011;12006;42.666;23.326;2023-04-01T00:29:41;18.17;;;14.10;;
23658;SDS011;12006;42.666;23.326;2023-04-01T00:32:10;16.37;;;12.60;;
23658;SDS011;12006;42.666;23.326;2023-04-01T00:34:35;21.23;;;13.93;;
23658;SDS011;12006;42.666;23.326;2023-04-01T00:37:01;17.70;;;12.27;;
23658;SDS011;12006;42.666;23.326;2023-04-01T00:39:30;13.37;;;11.17;;
23658;SDS011;12006;42.666;23.326;2023-04-01T00:41:56;16.40;;;11.33;;
23658;SDS011;12006;42.666;23.326;2023-04-01T00:44:23;17.73;;;12.83;;
23658;SDS011;12006;42.666;23.326;2023-04-01T00:46:50;16.23;;;11.60;;
23658;SDS011;12006;42.666;23.326;2023-04-01T00:49:17;14.20;;;10.63;;
23658;SDS011;12006;42.666;23.326;2023-04-01T00:51:45;16.17;;;12.03;;
23658;SDS011;12006;42.666;23.326;2023-04-01T00:54:13;12.80;;;10.60;;
23658;SDS011;12006;42.666;23.326;2023-04-01T00:56:48;17.20;;;11.63;;
23658;SDS011;12006;42.666;23.326;2023-04-01T00:59:37;12.77;;;9.87;;
23658;SDS011;12006;42.666;23.326;2023-04-01T01:02:07;12.90;;;10.00;;
23658;SDS011;12006;42.666;23.326;2023-04-01T01:04:35;12.93;;;9.03;;
23658;SDS011;12006;42.666;23.326;2023-04-01T01:12:46;14.67;;;9.17;;
23658;SDS011;12006;42.666;23.326;2023-04-01T01:15:30;12.67;;;9.47;;
23658;SDS011;12006;42.666;23.326;2023-04-01T01:34:15;13.60;;;8.90;;
23658;SDS011;12006;42.666;23.326;2023-04-01T01:36:57;9.43;;;7.23;;
23658;SDS011;12006;42.666;23.326;2023-04-01T01:39:26;9.33;;;8.27;;
23658;SDS011;12006;42.666;23.326;2023-04-01T01:41:55;8.73;;;7.60;;
23658;SDS011;12006;42.666;23.326;2023-04-01T01:44:25;10.60;;;7.70;;
23658;SDS011;12006;42.666;23.326;2023-04-01T01:46:54;11.67;;;7.37;;
23658;SDS011;12006;42.666;23.326;2023-04-01T01:49:21;8.83;;;7.07;;
23658;SDS011;12006;42.666;23.326;2023-04-01T01:51:49;11.07;;;7.10;;
23658;SDS011;12006;42.666;23.326;2023-04-01T01:54:15;9.97;;;7.17;;
23658;SDS011;12006;42.666;23.326;2023-04-01T01:56:43;12.77;;;7.60;;
23658;SDS011;12006;42.666;23.326;2023-04-01T01:59:12;11.03;;;6.93;;
23658;SDS011;12006;42.666;23.326;2023-04-01T02:01:41;9.10;;;7.20;;
23658;SDS011;12006;42.666;23.326;2023-04-01T02:04:09;11.40;;;7.17;;
23658;SDS011;12006;42.666;23.326;2023-04-01T02:06:37;12.47;;;7.10;;
23658;SDS011;12006;42.666;23.326;2023-04-01T02:09:07;10.53;;;7.73;;
23658;SDS011;12006;42.666;23.326;2023-04-01T02:16:55;8.10;;;6.33;;
23658;SDS011;12006;42.666;23.326;2023-04-01T02:19:28;9.53;;;7.23;;
23658;SDS011;12006;42.666;23.326;2023-04-01T02:21:59;11.07;;;6.90;;
23658;SDS011;12006;42.666;23.326;2023-04-01T02:24:28;8.23;;;6.13;;
23658;SDS011;12006;42.666;23.326;2023-04-01T02:26:56;12.07;;;6.43;;
23658;SDS011;12006;42.666;23.326;2023-04-01T02:29:22;8.53;;;5.30;;
23658;SDS011;12006;42.666;23.326;2023-04-01T02:31:50;10.13;;;5.27;;
23658;SDS011;12006;42.666;23.326;2023-04-01T02:34:18;8.83;;;5.93;;
23658;SDS011;12006;42.666;23.326;2023-04-01T02:43:13;6.50;;;4.33;;
23658;SDS011;12006;42.666;23.326;2023-04-01T02:45:39;8.30;;;5.10;;
23658;SDS011;12006;42.666;23.326;2023-04-01T02:48:05;10.67;;;5.27;;
23658;SDS011;12006;42.666;23.326;2023-04-01T02:50:30;7.07;;;4.50;;
23658;SDS011;12006;42.666;23.326;2023-04-01T02:52:55;6.87;;;5.40;;
23658;SDS011;12006;42.666;23.326;2023-04-01T02:55:21;9.97;;;5.17;;
23658;SDS011;12006;42.666;23.326;2023-04-01T02:57:46;8.20;;;5.17;;
23658;SDS011;12006;42.666;23.326;2023-04-01T03:00:12;6.30;;;4.90;;
23658;SDS011;12006;42.666;23.326;2023-04-01T03:02:38;6.53;;;4.63;;
23658;SDS011;12006;42.666;23.326;2023-04-01T03:05:04;7.80;;;4.87;;
23658;SDS011;12006;42.666;23.326;2023-04-01T03:07:30;9.00;;;5.57;;
23658;SDS011;12006;42.666;23.326;2023-04-01T03:09:56;6.83;;;5.37;;
23658;SDS011;12006;42.666;23.326;2023-04-01T03:12:22;8.03;;;5.23;;
23658;SDS011;12006;42.666;23.326;2023-04-01T03:14:47;7.67;;;5.10;;
23658;SDS011;12006;42.666;23.326;2023-04-01T03:17:13;7.83;;;5.30;;
23658;SDS011;12006;42.666;23.326;2023-04-01T03:19:38;8.67;;;6.57;;
23658;SDS011;12006;42.666;23.326;2023-04-01T03:22:03;8.93;;;6.17;;
23658;SDS011;12006;42.666;23.326;2023-04-01T03:24:29;10.67;;;6.90;;
23658;SDS011;12006;42.666;23.326;2023-04-01T03:26:54;10.70;;;6.43;;
23658;SDS011;12006;42.666;23.326;2023-04-01T03:29:20;10.50;;;7.23;;
23658;SDS011;12006;42.666;23.326;2023-04-01T03:31:45;7.77;;;6.40;;
23658;SDS011;12006;42.666;23.326;2023-04-01T03:34:10;9.50;;;7.13;;
23658;SDS011;12006;42.666;23.326;2023-04-01T03:36:36;10.33;;;7.57;;
23658;SDS011;12006;42.666;23.326;2023-04-01T03:39:01;10.50;;;8.33;;
23658;SDS011;12006;42.666;23.326;2023-04-01T03:41:28;10.63;;;8.90;;
23658;SDS011;12006;42.666;23.326;2023-04-01T03:43:55;12.77;;;9.37;;
23658;SDS011;12006;42.666;23.326;2023-04-01T03:46:20;11.17;;;8.97;;
23658;SDS011;12006;42.666;23.326;2023-04-01T03:48:46;12.97;;;8.97;;
23658;SDS011;12006;42.666;23.326;2023-04-01T03:51:12;11.90;;;8.20;;
23658;SDS011;12006;42.666;23.326;2023-04-01T03:53:37;10.67;;;7.90;;
23658;SDS011;12006;42.666;23.326;2023-04-01T03:56:03;9.60;;;7.30;;
23658;SDS011;12006;42.666;23.326;2023-04-01T03:58:30;9.43;;;7.83;;
23658;SDS011;12006;42.666;23.326;2023-04-01T04:00:55;7.73;;;6.73;;
23658;SDS011;12006;42.666;23.326;2023-04-01T04:03:21;11.53;;;7.10;;
23658;SDS011;12006;42.666;23.326;2023-04-01T04:05:47;9.70;;;6.90;;
23658;SDS011;12006;42.666;23.326;2023-04-01T04:08:13;10.80;;;6.77;;
23658;SDS011;12006;42.666;23.326;2023-04-01T04:10:38;8.73;;;6.10;;
23658;SDS011;12006;42.666;23.326;2023-04-01T04:13:04;7.70;;;6.27;;
23658;SDS011;12006;42.666;23.326;2023-04-01T04:15:30;10.43;;;6.50;;
23658;SDS011;12006;42.666;23.326;2023-04-01T04:17:55;10.80;;;6.90;;
23658;SDS011;12006;42.666;23.326;2023-04-01T04:20:21;11.03;;;7.00;;
23658;SDS011;12006;42.666;23.326;2023-04-01T04:22:46;9.20;;;6.90;;
23658;SDS011;12006;42.666;23.326;2023-04-01T04:25:11;12.23;;;6.97;;
23658;SDS011;12006;42.666;23.326;2023-04-01T04:27:37;10.17;;;7.37;;
23658;SDS011;12006;42.666;23.326;2023-04-01T04:30:03;10.23;;;7.37;;
23658;SDS011;12006;42.666;23.326;2023-04-01T04:32:30;10.10;;;7.10;;
23658;SDS011;12006;42.666;23.326;2023-04-01T04:34:55;13.80;;;7.40;;
23658;SDS011;12006;42.666;23.326;2023-04-01T04:37:21;10.50;;;6.63;;
23658;SDS011;12006;42.666;23.326;2023-04-01T04:39:46;11.17;;;6.23;;
23658;SDS011;12006;42.666;23.326;2023-04-01T04:42:11;9.53;;;6.33;;
23658;SDS011;12006;42.666;23.326;2023-04-01T04:44:37;8.17;;;5.73;;
23658;SDS011;12006;42.666;23.326;2023-04-01T04:47:03;10.63;;;7.27;;
23658;SDS011;12006;42.666;23.326;2023-04-01T04:49:29;7.53;;;6.07;;
23658;SDS011;12006;42.666;23.326;2023-04-01T04:51:54;9.80;;;6.77;;
23658;SDS011;12006;42.666;23.326;2023-04-01T04:54:20;10.83;;;6.47;;
23658;SDS011;12006;42.666;23.326;2023-04-01T04:56:45;9.07;;;6.13;;
23658;SDS011;12006;42.666;23.326;2023-04-01T04:59:10;8.87;;;6.03;;
23658;SDS011;12006;42.666;23.326;2023-04-01T05:01:37;10.33;;;5.90;;
23658;SDS011;12006;42.666;23.326;2023-04-01T05:04:03;9.93;;;5.63;;
23658;SDS011;12006;42.666;23.326;2023-04-01T05:06:28;9.97;;;6.53;;
23658;SDS011;12006;42.666;23.326;2023-04-01T05:08:54;7.97;;;6.40;;
23658;SDS011;12006;42.666;23.326;2023-04-01T05:11:20;9.07;;;6.27;;
23658;SDS011;12006;42.666;23.326;2023-04-01T05:13:46;9.10;;;6.50;;
23658;SDS011;12006;42.666;23.326;2023-04-01T05:16:13;15.73;;;7.03;;
23658;SDS011;12006;42.666;23.326;2023-04-01T05:18:41;14.67;;;7.53;;
23658;SDS011;12006;42.666;23.326;2023-04-01T05:21:10;9.30;;;6.73;;
23658;SDS011;12006;42.666;23.326;2023-04-01T05:23:37;9.67;;;6.70;;
23658;SDS011;12006;42.666;23.326;2023-04-01T05:26:06;10.00;;;6.40;;
23658;SDS011;12006;42.666;23.326;2023-04-01T05:28:33;11.13;;;5.87;;
23658;SDS011;12006;42.666;23.326;2023-04-01T05:30:59;8.47;;;5.67;;
23658;SDS011;12006;42.666;23.326;2023-04-01T05:33:26;9.77;;;6.70;;
23658;SDS011;12006;42.666;23.326;2023-04-01T05:35:52;8.93;;;6.33;;
23658;SDS011;12006;42.666;23.326;2023-04-01T05:38:17;15.20;;;8.07;;
23658;SDS011;12006;42.666;23.326;2023-04-01T05:40:43;12.20;;;7.43;;
23658;SDS011;12006;42.666;23.326;2023-04-01T05:43:08;10.90;;;7.63;;
23658;SDS011;12006;42.666;23.326;2023-04-01T05:45:34;8.17;;;6.53;;
23658;SDS011;12006;42.666;23.326;2023-04-01T05:47:59;9.73;;;6.13;;
23658;SDS011;12006;42.666;23.326;2023-04-01T05:50:25;10.90;;;6.57;;
23658;SDS011;12006;42.666;23.326;2023-04-01T05:52:51;8.30;;;5.40;;
23658;SDS011;12006;42.666;23.326;2023-04-01T05:55:16;8.10;;;4.93;;
23658;SDS011;12006;42.666;23.326;2023-04-01T05:57:42;10.33;;;4.60;;
23658;SDS011;12006;42.666;23.326;2023-04-01T06:00:09;6.70;;;4.17;;
23658;SDS011;12006;42.666;23.326;2023-04-01T06:02:35;9.97;;;4.80;;
23658;SDS011;12006;42.666;23.326;2023-04-01T06:05:08;11.30;;;5.57;;
23658;SDS011;12006;42.666;23.326;2023-04-01T06:07:36;7.50;;;4.07;;
23658;SDS011;12006;42.666;23.326;2023-04-01T06:10:05;6.13;;;4.20;;
23658;SDS011;12006;42.666;23.326;2023-04-01T06:20:57;6.67;;;3.20;;
23658;SDS011;12006;42.666;23.326;2023-04-01T06:23:35;4.80;;;2.93;;
23658;SDS011;12006;42.666;23.326;2023-04-01T06:26:31;4.80;;;3.60;;
23658;SDS011;12006;42.666;23.326;2023-04-01T06:29:23;7.20;;;3.63;;
23658;SDS011;12006;42.666;23.326;2023-04-01T06:36:56;5.60;;;3.30;;
23658;SDS011;12006;42.666;23.326;2023-04-01T06:47:31;5.20;;;4.20;;
23658;SDS011;12006;42.666;23.326;2023-04-01T06:53:18;6.33;;;4.73;;
23658;SDS011;12006;42.666;23.326;2023-04-01T06:55:55;6.03;;;4.77;;
23658;SDS011;12006;42.666;23.326;2023-04-01T06:58:29;8.80;;;4.50;;
23658;SDS011;12006;42.666;23.326;2023-04-01T07:01:02;7.43;;;4.37;;
23658;SDS011;12006;42.666;23.326;2023-04-01T07:03:35;5.43;;;3.90;;
23658;SDS011;12006;42.666;23.326;2023-04-01T07:06:15;5.77;;;4.30;;
23658;SDS011;12006;42.666;23.326;2023-04-01T07:09:05;7.13;;;4.67;;
23658;SDS011;12006;42.666;23.326;2023-04-01T07:11:37;7.43;;;4.60;;
23658;SDS011;12006;42.666;23.326;2023-04-01T07:16:58;4.33;;;3.87;;
23658;SDS011;12006;42.666;23.326;2023-04-01T07:25:01;5.67;;;4.50;;
23658;SDS011;12006;42.666;23.326;2023-04-01T07:27:36;7.57;;;4.47;;
23658;SDS011;12006;42.666;23.326;2023-04-01T07:30:01;7.17;;;5.37;;
23658;SDS011;12006;42.666;23.326;2023-04-01T07:32:42;7.37;;;4.50;;
23658;SDS011;12006;42.666;23.326;2023-04-01T07:35:30;6.60;;;4.18;;
23658;SDS011;12006;42.666;23.326;2023-04-01T07:43:44;7.07;;;4.83;;
23658;SDS011;12006;42.666;23.326;2023-04-01T07:46:29;8.43;;;4.63;;
23658;SDS011;12006;42.666;23.326;2023-04-01T07:49:08;7.90;;;4.43;;
23658;SDS011;12006;42.666;23.326;2023-04-01T07:52:04;11.27;;;5.00;;
23658;SDS011;12006;42.666;23.326;2023-04-01T07:57:19;16.93;;;4.90;;
23658;SDS011;12006;42.666;23.326;2023-04-01T08:11:37;7.53;;;5.07;;
23658;SDS011;12006;42.666;23.326;2023-04-01T08:14:32;6.90;;;5.00;;
23658;SDS011;12006;42.666;23.326;2023-04-01T08:17:52;8.57;;;4.90;;
23658;SDS011;12006;42.666;23.326;2023-04-01T08:20:45;8.47;;;4.80;;
23658;SDS011;12006;42.666;23.326;2023-04-01T08:23:33;9.87;;;6.10;;
23658;SDS011;12006;42.666;23.326;2023-04-01T08:28:51;8.37;;;5.17;;
23658;SDS011;12006;42.666;23.326;2023-04-01T08:31:29;9.93;;;5.28;;
23658;SDS011;12006;42.666;23.326;2023-04-01T08:33:59;6.93;;;4.43;;
23658;SDS011;12006;42.666;23.326;2023-04-01T08:39:41;9.77;;;4.40;;
23658;SDS011;12006;42.666;23.326;2023-04-01T08:42:25;7.68;;;4.10;;
23658;SDS011;12006;42.666;23.326;2023-04-01T08:45:15;6.82;;;4.70;;
23658;SDS011;12006;42.666;23.326;2023-04-01T08:50:51;8.52;;;4.75;;
23658;SDS011;12006;42.666;23.326;2023-04-01T09:07:15;6.75;;;3.95;;
23658;SDS011;12006;42.666;23.326;2023-04-01T09:09:50;6.20;;;4.28;;
23658;SDS011;12006;42.666;23.326;2023-04-01T09:23:27;4.63;;;2.80;;
23658;SDS011;12006;42.666;23.326;2023-04-01T09:25:59;4.47;;;3.15;;
23658;SDS011;12006;42.666;23.326;2023-04-01T09:39:36;6.15;;;3.25;;
23658;SDS011;12006;42.666;23.326;2023-04-01T09:42:13;5.63;;;2.67;;
23658;SDS011;12006;42.666;23.326;2023-04-01T09:50:31;5.50;;;2.53;;
23658;SDS011;12006;42.666;23.326;2023-04-01T09:56:00;9.93;;;3.35;;
23658;SDS011;12006;42.666;23.326;2023-04-01T10:15:36;5.53;;;2.78;;
23658;SDS011;12006;42.666;23.326;2023-04-01T10:18:36;3.60;;;2.78;;
23658;SDS011;12006;42.666;23.326;2023-04-01T10:38:48;5.28;;;2.80;;
23658;SDS011;12006;42.666;23.326;2023-04-01T10:52:51;5.68;;;3.22;;
23658;SDS011;12006;42.666;23.326;2023-04-01T10:55:37;6.85;;;2.67;;
23658;SDS011;12006;42.666;23.326;2023-04-01T11:26:52;6.00;;;3.30;;
23658;SDS011;12006;42.666;23.326;2023-04-01T11:45:58;5.13;;;1.43;;
23658;SDS011;12006;42.666;23.326;2023-04-01T11:48:35;6.07;;;1.80;;
23658;SDS011;12006;42.666;23.326;2023-04-01T11:53:55;4.23;;;2.00;;
23658;SDS011;12006;42.666;23.326;2023-04-01T11:56:42;2.87;;;1.33;;
23658;SDS011;12006;42.666;23.326;2023-04-01T12:05:13;2.13;;;1.43;;
23658;SDS011;12006;42.666;23.326;2023-04-01T12:13:58;4.37;;;3.53;;
23658;SDS011;12006;42.666;23.326;2023-04-01T12:21:47;6.37;;;4.00;;
23658;SDS011;12006;42.666;23.326;2023-04-01T12:24:49;6.77;;;4.13;;
23658;SDS011;12006;42.666;23.326;2023-04-01T12:27:24;6.20;;;3.97;;
23658;SDS011;12006;42.666;23.326;2023-04-01T12:35:22;5.00;;;3.50;;
23658;SDS011;12006;42.666;23.326;2023-04-01T12:37:57;4.30;;;3.90;;
23658;SDS011;12006;42.666;23.326;2023-04-01T12:43:31;8.10;;;4.80;;
23658;SDS011;12006;42.666;23.326;2023-04-01T12:46:16;6.07;;;4.60;;
23658;SDS011;12006;42.666;23.326;2023-04-01T12:55:00;6.93;;;4.43;;
23658;SDS011;12006;42.666;23.326;2023-04-01T13:05:38;9.70;;;5.23;;
23658;SDS011;12006;42.666;23.326;2023-04-01T13:08:29;7.97;;;6.07;;
23658;SDS011;12006;42.666;23.326;2023-04-01T13:16:48;9.23;;;5.40;;
23658;SDS011;12006;42.666;23.326;2023-04-01T13:19:29;5.60;;;4.50;;
23658;SDS011;12006;42.666;23.326;2023-04-01T13:24:39;6.33;;;4.40;;
23658;SDS011;12006;42.666;23.326;2023-04-01T13:32:49;4.57;;;3.63;;
23658;SDS011;12006;42.666;23.326;2023-04-01T13:35:33;6.07;;;3.77;;
23658;SDS011;12006;42.666;23.326;2023-04-01T13:41:09;5.30;;;3.63;;
23658;SDS011;12006;42.666;23.326;2023-04-01T13:44:09;5.23;;;2.93;;
23658;SDS011;12006;42.666;23.326;2023-04-01T13:49:36;5.37;;;4.00;;
23658;SDS011;12006;42.666;23.326;2023-04-01T13:54:53;5.10;;;3.80;;
23658;SDS011;12006;42.666;23.326;2023-04-01T13:57:35;4.97;;;4.00;;
23658;SDS011;12006;42.666;23.326;2023-04-01T14:00:32;4.67;;;3.27;;
23658;SDS011;12006;42.666;23.326;2023-04-01T14:16:55;3.23;;;2.40;;
23658;SDS011;12006;42.666;23.326;2023-04-01T14:28:43;4.83;;;2.10;;
23658;SDS011;12006;42.666;23.326;2023-04-01T14:48:17;6.70;;;4.47;;
23658;SDS011;12006;42.666;23.326;2023-04-01T14:50:50;5.47;;;3.77;;
23658;SDS011;12006;42.666;23.326;2023-04-01T14:58:16;3.80;;;3.23;;
23658;SDS011;12006;42.666;23.326;2023-04-01T15:06:25;4.47;;;3.37;;
23658;SDS011;12006;42.666;23.326;2023-04-01T15:14:35;5.33;;;3.20;;
23658;SDS011;12006;42.666;23.326;2023-04-01T15:19:56;5.33;;;2.73;;
23658;SDS011;12006;42.666;23.326;2023-04-01T15:38:43;3.40;;;2.60;;
23658;SDS011;12006;42.666;23.326;2023-04-01T15:44:32;3.87;;;2.70;;
23658;SDS011;12006;42.666;23.326;2023-04-01T15:47:53;5.03;;;2.77;;
23658;SDS011;12006;42.666;23.326;2023-04-01T15:52:43;2.50;;;1.00;;
23658;SDS011;12006;42.666;23.326;2023-04-01T15:58:27;1.80;;;1.20;;
23658;SDS011;12006;42.666;23.326;2023-04-01T16:01:19;1.00;;;0.90;;
23658;SDS011;12006;42.666;23.326;2023-04-01T16:06:42;5.23;;;2.67;;
23658;SDS011;12006;42.666;23.326;2023-04-01T16:23:24;5.83;;;3.27;;
23658;SDS011;12006;42.666;23.326;2023-04-01T16:27:24;2.67;;;2.43;;
23658;SDS011;12006;42.666;23.326;2023-04-01T16:30:26;1.67;;;1.57;;
23658;SDS011;12006;42.666;23.326;2023-04-01T16:34:16;3.03;;;2.07;;
23658;SDS011;12006;42.666;23.326;2023-04-01T16:37:50;1.83;;;1.33;;
23658;SDS011;12006;42.666;23.326;2023-04-01T16:41:17;2.33;;;1.50;;
23658;SDS011;12006;42.666;23.326;2023-04-01T16:44:53;2.73;;;2.10;;
23658;SDS011;12006;42.666;23.326;2023-04-01T16:49:23;2.17;;;1.53;;
23658;SDS011;12006;42.666;23.326;2023-04-01T17:04:00;0.90;;;0.80;;
23658;SDS011;12006;42.666;23.326;2023-04-01T17:11:19;1.77;;;1.00;;
23658;SDS011;12006;42.666;23.326;2023-04-01T17:48:35;1.53;;;1.10;;
23658;SDS011;12006;42.666;23.326;2023-04-01T17:59:50;1.30;;;1.20;;
23658;SDS011;12006;42.666;23.326;2023-04-01T18:03:59;1.77;;;1.67;;
23658;SDS011;12006;42.666;23.326;2023-04-01T18:22:44;3.60;;;3.30;;
23658;SDS011;12006;42.666;23.326;2023-04-01T18:26:13;4.50;;;4.10;;
23658;SDS011;12006;42.666;23.326;2023-04-01T18:29:54;3.40;;;3.10;;
23658;SDS011;12006;42.666;23.326;2023-04-01T18:33:36;4.10;;;3.77;;
23658;SDS011;12006;42.666;23.326;2023-04-01T18:37:22;2.77;;;2.40;;
23658;SDS011;12006;42.666;23.326;2023-04-01T18:49:05;2.97;;;2.77;;
23658;SDS011;12006;42.666;23.326;2023-04-01T18:52:44;1.80;;;1.70;;
23658;SDS011;12006;42.666;23.326;2023-04-01T18:56:39;1.13;;;1.03;;
23658;SDS011;12006;42.666;23.326;2023-04-01T19:00:28;2.47;;;1.83;;
23658;SDS011;12006;42.666;23.326;2023-04-01T19:08:12;1.97;;;1.73;;
23658;SDS011;12006;42.666;23.326;2023-04-01T19:15:51;2.70;;;2.50;;
23658;SDS011;12006;42.666;23.326;2023-04-01T19:34:41;1.20;;;1.10;;
23658;SDS011;12006;42.666;23.326;2023-04-01T19:38:30;1.30;;;1.10;;
23658;SDS011;12006;42.666;23.326;2023-04-01T19:45:47;6.27;;;1.10;;
23658;SDS011;12006;42.666;23.326;2023-04-01T19:53:00;0.70;;;0.70;;
23658;SDS011;12006;42.666;23.326;2023-04-01T20:00:41;1.67;;;1.43;;
23658;SDS011;12006;42.666;23.326;2023-04-01T20:04:23;1.50;;;1.27;;
23658;SDS011;12006;42.666;23.326;2023-04-01T20:08:02;1.23;;;1.13;;
23658;SDS011;12006;42.666;23.326;2023-04-01T20:15:23;1.53;;;1.40;;
23658;SDS011;12006;42.666;23.326;2023-04-01T20:19:06;2.90;;;1.43;;
23658;SDS011;12006;42.666;23.326;2023-04-01T20:26:18;1.43;;;1.33;;
23658;SDS011;12006;42.666;23.326;2023-04-01T20:30:18;1.40;;;1.30;;
23658;SDS011;12006;42.666;23.326;2023-04-01T20:37:40;2.13;;;1.67;;
23658;SDS011;12006;42.666;23.326;2023-04-01T20:41:25;1.47;;;1.37;;
23658;SDS011;12006;42.666;23.326;2023-04-01T20:48:55;2.23;;;2.03;;
23658;SDS011;12006;42.666;23.326;2023-04-01T20:52:25;3.77;;;1.80;;
23658;SDS011;12006;42.666;23.326;2023-04-01T20:56:10;4.73;;;1.43;;
23658;SDS011;12006;42.666;23.326;2023-04-01T21:03:55;2.23;;;1.73;;
23658;SDS011;12006;42.666;23.326;2023-04-01T21:07:55;2.10;;;1.00;;
23658;SDS011;12006;42.666;23.326;2023-04-01T21:15:21;1.83;;;1.30;;
23658;SDS011;12006;42.666;23.326;2023-04-01T21:27:04;1.00;;;0.97;;
23658;SDS011;12006;42.666;23.326;2023-04-01T21:42:17;0.70;;;0.70;;
23658;SDS011;12006;42.666;23.326;2023-04-01T22:00:38;2.40;;;1.57;;
23658;SDS011;12006;42.666;23.326;2023-04-01T22:04:34;3.63;;;1.70;;
23658;SDS011;12006;42.666;23.326;2023-04-01T22:11:57;2.17;;;1.23;;
23658;SDS011;12006;42.666;23.326;2023-04-01T22:19:33;1.30;;;1.20;;
23658;SDS011;12006;42.666;23.326;2023-04-01T22:23:01;1.23;;;1.10;;
23658;SDS011;12006;42.666;23.326;2023-04-01T22:26:47;1.70;;;0.80;;
23658;SDS011;12006;42.666;23.326;2023-04-01T22:55:52;0.80;;;0.80;;
23658;SDS011;12006;42.666;23.326;2023-04-01T23:03:14;1.97;;;1.53;;
23658;SDS011;12006;42.666;23.326;2023-04-01T23:06:47;2.40;;;2.00;;
23658;SDS011;12006;42.666;23.326;2023-04-01T23:14:39;1.10;;;0.80;;
23658;SDS011;12006;42.666;23.326;2023-04-01T23:18:13;0.33;;;0.33;;
23658;SDS011;12006;42.666;23.326;2023-04-01T23:21:53;0.80;;;0.50;;
23658;SDS011;12006;42.666;23.326;2023-04-01T23:29:28;0.50;;;0.50;;
23658;SDS011;12006;42.666;23.326;2023-04-01T23:36:52;1.63;;;0.60;;
23658;SDS011;12006;42.666;23.326;2023-04-01T23:40:16;0.23;;;0.23;;
23658;SDS011;12006;42.666;23.326;2023-04-01T23:43:49;0.57;;;0.30;;
23658;SDS011;12006;42.666;23.326;2023-04-01T23:47:22;0.50;;;0.50;;
23658;SDS011;12006;42.666;23.326;2023-04-01T23:50:51;0.40;;;0.40;;
23658;SDS011;12006;42.666;23.326;2023-04-01T23:54:25;2.00;;;0.50;;
